sensor_id;sensor_type;location;lat;lon;timestamp;temperature;humidity
31271;DHT22;17904;47.420;9.310;2022-08-25T00:01:22;14.40;99.90
31271;DHT22;17904;47.420;9.310;2022-08-25T00:03:53;14.30;99.90
31271;DHT22;17904;47.420;9.310;2022-08-25T00:06:20;14.30;99.90
31271;DHT22;17904;47.420;9.310;2022-08-25T00:08:47;14.20;99.90
31271;DHT22;17904;47.420;9.310;2022-08-25T00:11:17;14.20;99.90
31271;DHT22;17904;47.420;9.310;2022-08-25T00:13:48;14.20;99.90
31271;DHT22;17904;47.420;9.310;2022-08-25T00:16:18;14.10;99.90
31271;DHT22;17904;47.420;9.310;2022-08-25T00:18:48;14.10;99.90
31271;DHT22;17904;47.420;9.310;2022-08-25T00:21:16;14.10;99.90
31271;DHT22;17904;47.420;9.310;2022-08-25T00:23:43;14.20;99.90
31271;DHT22;17904;47.420;9.310;2022-08-25T00:26:12;14.20;99.90
31271;DHT22;17904;47.420;9.310;2022-08-25T00:28:39;14.20;99.90
31271;DHT22;17904;47.420;9.310;2022-08-25T00:31:09;14.20;99.90
31271;DHT22;17904;47.420;9.310;2022-08-25T00:33:36;14.20;99.90
31271;DHT22;17904;47.420;9.310;2022-08-25T00:36:03;14.20;99.90
31271;DHT22;17904;47.420;9.310;2022-08-25T00:38:30;14.20;99.90
31271;DHT22;17904;47.420;9.310;2022-08-25T00:40:57;14.20;99.90
31271;DHT22;17904;47.420;9.310;2022-08-25T00:43:41;14.20;99.90
31271;DHT22;17904;47.420;9.310;2022-08-25T00:46:15;14.20;99.90
31271;DHT22;17904;47.420;9.310;2022-08-25T00:48:46;14.10;99.90
31271;DHT22;17904;47.420;9.310;2022-08-25T00:51:28;14.10;99.90
31271;DHT22;17904;47.420;9.310;2022-08-25T00:53:56;14.10;99.90
31271;DHT22;17904;47.420;9.310;2022-08-25T00:56:24;14.00;99.90
31271;DHT22;17904;47.420;9.310;2022-08-25T00:58:52;14.00;99.90
31271;DHT22;17904;47.420;9.310;2022-08-25T01:01:19;14.00;99.90
31271;DHT22;17904;47.420;9.310;2022-08-25T01:03:46;14.00;99.90
31271;DHT22;17904;47.420;9.310;2022-08-25T01:06:13;13.90;99.90
31271;DHT22;17904;47.420;9.310;2022-08-25T01:08:40;13.90;99.90
31271;DHT22;17904;47.420;9.310;2022-08-25T01:11:09;13.90;99.90
31271;DHT22;17904;47.420;9.310;2022-08-25T01:13:43;13.80;99.90
31271;DHT22;17904;47.420;9.310;2022-08-25T01:16:12;13.80;99.90
31271;DHT22;17904;47.420;9.310;2022-08-25T01:18:57;13.70;99.90
31271;DHT22;17904;47.420;9.310;2022-08-25T01:21:28;13.80;99.90
31271;DHT22;17904;47.420;9.310;2022-08-25T01:23:57;13.80;99.90
31271;DHT22;17904;47.420;9.310;2022-08-25T01:26:29;13.70;99.90
31271;DHT22;17904;47.420;9.310;2022-08-25T01:28:58;13.70;99.90
31271;DHT22;17904;47.420;9.310;2022-08-25T01:31:44;13.70;99.90
31271;DHT22;17904;47.420;9.310;2022-08-25T01:34:10;13.70;99.90
31271;DHT22;17904;47.420;9.310;2022-08-25T01:36:42;13.70;99.90
31271;DHT22;17904;47.420;9.310;2022-08-25T01:39:11;13.60;99.90
31271;DHT22;17904;47.420;9.310;2022-08-25T01:44:17;13.60;99.90
31271;DHT22;17904;47.420;9.310;2022-08-25T01:46:44;13.60;99.90
31271;DHT22;17904;47.420;9.310;2022-08-25T01:49:11;13.50;99.90
31271;DHT22;17904;47.420;9.310;2022-08-25T01:51:48;13.50;99.90
31271;DHT22;17904;47.420;9.310;2022-08-25T01:54:16;13.50;99.90
31271;DHT22;17904;47.420;9.310;2022-08-25T01:56:43;13.40;99.90
31271;DHT22;17904;47.420;9.310;2022-08-25T01:59:10;13.40;99.90
31271;DHT22;17904;47.420;9.310;2022-08-25T02:01:47;13.40;99.90
31271;DHT22;17904;47.420;9.310;2022-08-25T02:04:14;13.40;99.90
31271;DHT22;17904;47.420;9.310;2022-08-25T02:06:41;13.40;99.90
31271;DHT22;17904;47.420;9.310;2022-08-25T02:09:13;13.40;99.90
31271;DHT22;17904;47.420;9.310;2022-08-25T02:11:43;13.50;99.90
31271;DHT22;17904;47.420;9.310;2022-08-25T02:14:13;13.50;99.90
31271;DHT22;17904;47.420;9.310;2022-08-25T02:16:45;13.50;99.90
31271;DHT22;17904;47.420;9.310;2022-08-25T02:19:13;13.40;99.90
31271;DHT22;17904;47.420;9.310;2022-08-25T02:21:41;13.40;99.90
31271;DHT22;17904;47.420;9.310;2022-08-25T02:24:08;13.40;99.90
31271;DHT22;17904;47.420;9.310;2022-08-25T02:26:35;13.40;99.90
31271;DHT22;17904;47.420;9.310;2022-08-25T02:29:02;13.40;99.90
31271;DHT22;17904;47.420;9.310;2022-08-25T02:31:29;13.40;99.90
31271;DHT22;17904;47.420;9.310;2022-08-25T02:33:56;13.40;99.90
31271;DHT22;17904;47.420;9.310;2022-08-25T02:36:23;13.30;99.90
31271;DHT22;17904;47.420;9.310;2022-08-25T02:38:50;13.30;99.90
31271;DHT22;17904;47.420;9.310;2022-08-25T02:41:18;13.30;99.90
31271;DHT22;17904;47.420;9.310;2022-08-25T02:43:47;13.30;99.90
31271;DHT22;17904;47.420;9.310;2022-08-25T02:46:15;13.30;99.90
31271;DHT22;17904;47.420;9.310;2022-08-25T02:48:42;13.30;99.90
31271;DHT22;17904;47.420;9.310;2022-08-25T02:51:10;13.20;99.90
31271;DHT22;17904;47.420;9.310;2022-08-25T02:53:38;13.20;99.90
31271;DHT22;17904;47.420;9.310;2022-08-25T02:56:08;13.20;99.90
31271;DHT22;17904;47.420;9.310;2022-08-25T02:58:36;13.20;99.90
31271;DHT22;17904;47.420;9.310;2022-08-25T03:01:04;13.20;99.90
31271;DHT22;17904;47.420;9.310;2022-08-25T03:03:32;13.20;99.90
31271;DHT22;17904;47.420;9.310;2022-08-25T03:06:08;13.20;99.90
31271;DHT22;17904;47.420;9.310;2022-08-25T03:08:36;13.20;99.90
31271;DHT22;17904;47.420;9.310;2022-08-25T03:11:04;13.10;99.90
31271;DHT22;17904;47.420;9.310;2022-08-25T03:13:31;13.10;99.90
31271;DHT22;17904;47.420;9.310;2022-08-25T03:15:59;13.10;99.90
31271;DHT22;17904;47.420;9.310;2022-08-25T03:18:26;13.00;99.90
31271;DHT22;17904;47.420;9.310;2022-08-25T03:20:53;13.00;99.90
31271;DHT22;17904;47.420;9.310;2022-08-25T03:23:20;12.90;99.90
31271;DHT22;17904;47.420;9.310;2022-08-25T03:25:47;12.90;99.90
31271;DHT22;17904;47.420;9.310;2022-08-25T03:28:37;12.80;99.90
31271;DHT22;17904;47.420;9.310;2022-08-25T03:31:04;12.80;99.90
31271;DHT22;17904;47.420;9.310;2022-08-25T03:33:31;12.80;99.90
31271;DHT22;17904;47.420;9.310;2022-08-25T03:35:58;12.70;99.90
31271;DHT22;17904;47.420;9.310;2022-08-25T03:38:26;12.70;99.90
31271;DHT22;17904;47.420;9.310;2022-08-25T03:40:53;12.70;99.90
31271;DHT22;17904;47.420;9.310;2022-08-25T03:43:20;12.70;99.90
31271;DHT22;17904;47.420;9.310;2022-08-25T03:45:47;12.70;99.90
31271;DHT22;17904;47.420;9.310;2022-08-25T03:48:15;12.70;99.90
31271;DHT22;17904;47.420;9.310;2022-08-25T03:50:44;12.80;99.90
31271;DHT22;17904;47.420;9.310;2022-08-25T03:53:18;12.80;99.90
31271;DHT22;17904;47.420;9.310;2022-08-25T03:55:45;12.80;99.90
31271;DHT22;17904;47.420;9.310;2022-08-25T03:58:12;12.80;99.90
31271;DHT22;17904;47.420;9.310;2022-08-25T04:00:39;12.80;99.90
31271;DHT22;17904;47.420;9.310;2022-08-25T04:03:06;12.80;99.90
31271;DHT22;17904;47.420;9.310;2022-08-25T04:05:33;12.80;99.90
31271;DHT22;17904;47.420;9.310;2022-08-25T04:08:00;12.80;99.90
31271;DHT22;17904;47.420;9.310;2022-08-25T04:10:29;12.80;99.90
31271;DHT22;17904;47.420;9.310;2022-08-25T04:12:57;12.80;99.90
31271;DHT22;17904;47.420;9.310;2022-08-25T04:15:23;12.70;99.90
31271;DHT22;17904;47.420;9.310;2022-08-25T04:17:56;12.70;99.90
31271;DHT22;17904;47.420;9.310;2022-08-25T04:20:25;12.70;99.90
31271;DHT22;17904;47.420;9.310;2022-08-25T04:22:52;12.70;99.90
31271;DHT22;17904;47.420;9.310;2022-08-25T04:25:19;12.70;99.90
31271;DHT22;17904;47.420;9.310;2022-08-25T04:27:46;12.70;99.90
31271;DHT22;17904;47.420;9.310;2022-08-25T04:30:12;12.60;99.90
31271;DHT22;17904;47.420;9.310;2022-08-25T04:32:40;12.70;99.90
31271;DHT22;17904;47.420;9.310;2022-08-25T04:35:06;12.60;99.90
31271;DHT22;17904;47.420;9.310;2022-08-25T04:37:34;12.60;99.90
31271;DHT22;17904;47.420;9.310;2022-08-25T04:40:01;12.70;99.90
31271;DHT22;17904;47.420;9.310;2022-08-25T04:42:28;12.70;99.90
31271;DHT22;17904;47.420;9.310;2022-08-25T04:44:55;12.60;99.90
31271;DHT22;17904;47.420;9.310;2022-08-25T04:47:21;12.60;99.90
31271;DHT22;17904;47.420;9.310;2022-08-25T04:49:48;12.60;99.90
31271;DHT22;17904;47.420;9.310;2022-08-25T04:52:15;12.60;99.90
31271;DHT22;17904;47.420;9.310;2022-08-25T04:54:42;12.60;99.90
31271;DHT22;17904;47.420;9.310;2022-08-25T04:57:10;12.60;99.90
31271;DHT22;17904;47.420;9.310;2022-08-25T04:59:37;12.50;99.90
31271;DHT22;17904;47.420;9.310;2022-08-25T05:02:04;12.60;99.90
31271;DHT22;17904;47.420;9.310;2022-08-25T05:04:34;12.60;99.90
31271;DHT22;17904;47.420;9.310;2022-08-25T05:07:02;12.60;99.90
31271;DHT22;17904;47.420;9.310;2022-08-25T05:09:29;12.70;99.90
31271;DHT22;17904;47.420;9.310;2022-08-25T05:12:02;12.70;99.90
31271;DHT22;17904;47.420;9.310;2022-08-25T05:14:31;12.80;99.90
31271;DHT22;17904;47.420;9.310;2022-08-25T05:16:58;12.80;99.90
31271;DHT22;17904;47.420;9.310;2022-08-25T05:19:26;12.90;99.90
31271;DHT22;17904;47.420;9.310;2022-08-25T05:21:53;13.00;99.90
31271;DHT22;17904;47.420;9.310;2022-08-25T05:24:24;13.00;99.90
31271;DHT22;17904;47.420;9.310;2022-08-25T05:26:51;13.10;99.90
31271;DHT22;17904;47.420;9.310;2022-08-25T05:29:18;13.20;99.90
31271;DHT22;17904;47.420;9.310;2022-08-25T05:31:45;13.20;99.90
31271;DHT22;17904;47.420;9.310;2022-08-25T05:34:16;13.30;99.90
31271;DHT22;17904;47.420;9.310;2022-08-25T05:36:44;13.30;99.90
31271;DHT22;17904;47.420;9.310;2022-08-25T05:39:11;13.40;99.90
31271;DHT22;17904;47.420;9.310;2022-08-25T05:41:38;13.50;99.90
31271;DHT22;17904;47.420;9.310;2022-08-25T05:44:06;13.50;99.90
31271;DHT22;17904;47.420;9.310;2022-08-25T05:46:33;13.60;99.90
31271;DHT22;17904;47.420;9.310;2022-08-25T05:48:59;13.70;99.90
31271;DHT22;17904;47.420;9.310;2022-08-25T05:51:27;13.80;99.90
31271;DHT22;17904;47.420;9.310;2022-08-25T05:53:54;13.90;99.90
31271;DHT22;17904;47.420;9.310;2022-08-25T05:56:21;14.00;99.90
31271;DHT22;17904;47.420;9.310;2022-08-25T05:58:48;14.00;99.90
31271;DHT22;17904;47.420;9.310;2022-08-25T06:01:25;14.10;99.90
31271;DHT22;17904;47.420;9.310;2022-08-25T06:04:15;14.20;99.90
31271;DHT22;17904;47.420;9.310;2022-08-25T06:06:43;14.30;99.90
31271;DHT22;17904;47.420;9.310;2022-08-25T06:09:10;14.40;99.90
31271;DHT22;17904;47.420;9.310;2022-08-25T06:11:38;14.50;99.90
31271;DHT22;17904;47.420;9.310;2022-08-25T06:14:07;14.60;99.90
31271;DHT22;17904;47.420;9.310;2022-08-25T06:16:34;14.60;99.90
31271;DHT22;17904;47.420;9.310;2022-08-25T06:19:01;14.80;99.90
31271;DHT22;17904;47.420;9.310;2022-08-25T06:21:28;14.90;99.90
31271;DHT22;17904;47.420;9.310;2022-08-25T06:23:55;15.00;99.90
31271;DHT22;17904;47.420;9.310;2022-08-25T06:26:24;15.10;99.90
31271;DHT22;17904;47.420;9.310;2022-08-25T06:28:52;15.20;99.90
31271;DHT22;17904;47.420;9.310;2022-08-25T06:31:19;15.30;99.90
31271;DHT22;17904;47.420;9.310;2022-08-25T06:33:48;15.40;99.90
31271;DHT22;17904;47.420;9.310;2022-08-25T06:36:16;15.50;99.90
31271;DHT22;17904;47.420;9.310;2022-08-25T06:38:42;15.60;99.90
31271;DHT22;17904;47.420;9.310;2022-08-25T06:41:09;15.70;99.90
31271;DHT22;17904;47.420;9.310;2022-08-25T06:43:38;15.80;99.90
31271;DHT22;17904;47.420;9.310;2022-08-25T06:46:16;16.00;99.90
31271;DHT22;17904;47.420;9.310;2022-08-25T06:48:43;16.10;99.90
31271;DHT22;17904;47.420;9.310;2022-08-25T06:51:12;16.20;99.90
31271;DHT22;17904;47.420;9.310;2022-08-25T06:53:41;16.30;99.90
31271;DHT22;17904;47.420;9.310;2022-08-25T06:56:08;16.50;99.90
31271;DHT22;17904;47.420;9.310;2022-08-25T06:58:36;16.60;99.90
31271;DHT22;17904;47.420;9.310;2022-08-25T07:01:18;16.70;99.90
31271;DHT22;17904;47.420;9.310;2022-08-25T07:03:49;16.90;99.90
31271;DHT22;17904;47.420;9.310;2022-08-25T07:06:18;17.00;99.90
31271;DHT22;17904;47.420;9.310;2022-08-25T07:08:46;17.20;99.90
31271;DHT22;17904;47.420;9.310;2022-08-25T07:11:14;17.30;99.90
31271;DHT22;17904;47.420;9.310;2022-08-25T07:13:44;17.40;99.90
31271;DHT22;17904;47.420;9.310;2022-08-25T07:16:11;17.60;99.90
31271;DHT22;17904;47.420;9.310;2022-08-25T07:18:41;17.80;99.90
31271;DHT22;17904;47.420;9.310;2022-08-25T07:21:11;17.90;99.90
31271;DHT22;17904;47.420;9.310;2022-08-25T07:23:39;18.00;99.90
31271;DHT22;17904;47.420;9.310;2022-08-25T07:26:12;18.20;99.90
31271;DHT22;17904;47.420;9.310;2022-08-25T07:29:00;18.30;99.90
31271;DHT22;17904;47.420;9.310;2022-08-25T07:31:28;18.40;99.90
31271;DHT22;17904;47.420;9.310;2022-08-25T07:33:56;18.50;99.90
31271;DHT22;17904;47.420;9.310;2022-08-25T07:36:42;18.70;99.90
31271;DHT22;17904;47.420;9.310;2022-08-25T07:39:10;18.80;99.90
31271;DHT22;17904;47.420;9.310;2022-08-25T07:41:39;18.90;99.90
31271;DHT22;17904;47.420;9.310;2022-08-25T07:44:08;19.00;99.90
31271;DHT22;17904;47.420;9.310;2022-08-25T07:46:36;19.20;99.90
31271;DHT22;17904;47.420;9.310;2022-08-25T07:49:05;19.50;99.90
31271;DHT22;17904;47.420;9.310;2022-08-25T07:51:45;20.30;99.90
31271;DHT22;17904;47.420;9.310;2022-08-25T07:54:33;21.10;99.90
31271;DHT22;17904;47.420;9.310;2022-08-25T07:57:05;21.80;99.90
31271;DHT22;17904;47.420;9.310;2022-08-25T07:59:32;22.40;99.90
31271;DHT22;17904;47.420;9.310;2022-08-25T08:02:10;22.80;99.90
31271;DHT22;17904;47.420;9.310;2022-08-25T08:04:48;23.30;99.90
31271;DHT22;17904;47.420;9.310;2022-08-25T08:07:19;23.70;99.90
31271;DHT22;17904;47.420;9.310;2022-08-25T08:09:48;24.10;99.90
31271;DHT22;17904;47.420;9.310;2022-08-25T08:12:32;24.40;99.90
31271;DHT22;17904;47.420;9.310;2022-08-25T08:15:00;24.90;99.90
31271;DHT22;17904;47.420;9.310;2022-08-25T08:17:27;25.20;95.90
31271;DHT22;17904;47.420;9.310;2022-08-25T08:19:54;25.50;94.20
31271;DHT22;17904;47.420;9.310;2022-08-25T08:22:21;25.70;91.50
31271;DHT22;17904;47.420;9.310;2022-08-25T08:24:49;26.00;90.90
31271;DHT22;17904;47.420;9.310;2022-08-25T08:27:22;26.20;91.00
31271;DHT22;17904;47.420;9.310;2022-08-25T08:29:50;26.50;90.00
31271;DHT22;17904;47.420;9.310;2022-08-25T08:32:18;26.60;84.70
31271;DHT22;17904;47.420;9.310;2022-08-25T08:34:51;26.80;83.30
31271;DHT22;17904;47.420;9.310;2022-08-25T08:37:18;27.00;78.20
31271;DHT22;17904;47.420;9.310;2022-08-25T08:39:48;27.10;78.40
31271;DHT22;17904;47.420;9.310;2022-08-25T08:47:42;27.40;73.40
31271;DHT22;17904;47.420;9.310;2022-08-25T08:53:04;27.40;70.00
31271;DHT22;17904;47.420;9.310;2022-08-25T08:55:48;27.40;72.10
31271;DHT22;17904;47.420;9.310;2022-08-25T08:58:35;27.40;74.10
31271;DHT22;17904;47.420;9.310;2022-08-25T09:01:09;27.50;74.70
31271;DHT22;17904;47.420;9.310;2022-08-25T09:03:50;27.60;74.60
31271;DHT22;17904;47.420;9.310;2022-08-25T09:08:57;27.80;71.70
31271;DHT22;17904;47.420;9.310;2022-08-25T09:19:58;28.20;73.20
31271;DHT22;17904;47.420;9.310;2022-08-25T09:28:42;28.30;73.20
31271;DHT22;17904;47.420;9.310;2022-08-25T09:31:35;28.40;75.10
31271;DHT22;17904;47.420;9.310;2022-08-25T09:34:10;28.40;77.00
31271;DHT22;17904;47.420;9.310;2022-08-25T09:36:38;28.50;78.80
31271;DHT22;17904;47.420;9.310;2022-08-25T09:39:06;28.60;79.60
31271;DHT22;17904;47.420;9.310;2022-08-25T09:41:46;28.80;80.10
31271;DHT22;17904;47.420;9.310;2022-08-25T09:44:31;28.90;77.90
31271;DHT22;17904;47.420;9.310;2022-08-25T09:49:49;29.20;70.40
31271;DHT22;17904;47.420;9.310;2022-08-25T09:52:22;29.30;75.20
31271;DHT22;17904;47.420;9.310;2022-08-25T09:54:53;29.30;78.30
31271;DHT22;17904;47.420;9.310;2022-08-25T09:57:35;29.30;75.90
31271;DHT22;17904;47.420;9.310;2022-08-25T10:00:27;29.40;77.10
31271;DHT22;17904;47.420;9.310;2022-08-25T10:06:08;29.70;73.30
31271;DHT22;17904;47.420;9.310;2022-08-25T10:11:09;30.00;73.50
31271;DHT22;17904;47.420;9.310;2022-08-25T10:13:48;30.10;72.60
31271;DHT22;17904;47.420;9.310;2022-08-25T10:16:24;30.30;71.80
31271;DHT22;17904;47.420;9.310;2022-08-25T10:21:41;30.50;67.50
31271;DHT22;17904;47.420;9.310;2022-08-25T10:24:10;30.40;59.50
31271;DHT22;17904;47.420;9.310;2022-08-25T10:32:04;30.10;62.80
31271;DHT22;17904;47.420;9.310;2022-08-25T10:34:48;30.20;65.70
31271;DHT22;17904;47.420;9.310;2022-08-25T10:37:22;30.50;68.80
31271;DHT22;17904;47.420;9.310;2022-08-25T10:45:46;30.90;60.80
31271;DHT22;17904;47.420;9.310;2022-08-25T10:54:04;30.90;55.80
31271;DHT22;17904;47.420;9.310;2022-08-25T10:56:40;30.90;54.90
31271;DHT22;17904;47.420;9.310;2022-08-25T10:59:29;31.00;55.40
31271;DHT22;17904;47.420;9.310;2022-08-25T11:07:33;31.00;61.50
31271;DHT22;17904;47.420;9.310;2022-08-25T11:10:05;31.10;60.30
31271;DHT22;17904;47.420;9.310;2022-08-25T11:12:41;31.20;61.80
31271;DHT22;17904;47.420;9.310;2022-08-25T11:15:19;31.20;60.50
31271;DHT22;17904;47.420;9.310;2022-08-25T11:18:06;31.20;61.10
31271;DHT22;17904;47.420;9.310;2022-08-25T11:26:28;31.50;64.60
31271;DHT22;17904;47.420;9.310;2022-08-25T11:29:15;31.60;60.30
31271;DHT22;17904;47.420;9.310;2022-08-25T11:31:47;31.70;59.50
31271;DHT22;17904;47.420;9.310;2022-08-25T11:34:20;31.80;60.00
31271;DHT22;17904;47.420;9.310;2022-08-25T11:37:00;31.70;60.00
31271;DHT22;17904;47.420;9.310;2022-08-25T11:40:11;31.80;59.90
31271;DHT22;17904;47.420;9.310;2022-08-25T11:42:58;31.80;57.90
31271;DHT22;17904;47.420;9.310;2022-08-25T11:48:34;31.70;59.30
31271;DHT22;17904;47.420;9.310;2022-08-25T11:51:26;31.70;57.90
31271;DHT22;17904;47.420;9.310;2022-08-25T11:54:25;31.70;55.80
31271;DHT22;17904;47.420;9.310;2022-08-25T12:00:01;31.90;54.50
31271;DHT22;17904;47.420;9.310;2022-08-25T12:02:46;32.10;55.30
31271;DHT22;17904;47.420;9.310;2022-08-25T12:07:58;31.80;54.10
31271;DHT22;17904;47.420;9.310;2022-08-25T12:11:04;31.70;50.50
31271;DHT22;17904;47.420;9.310;2022-08-25T12:14:10;31.40;50.80
31271;DHT22;17904;47.420;9.310;2022-08-25T12:16:58;31.20;50.50
31271;DHT22;17904;47.420;9.310;2022-08-25T12:30:28;31.50;52.20
31271;DHT22;17904;47.420;9.310;2022-08-25T12:33:37;31.60;50.70
31271;DHT22;17904;47.420;9.310;2022-08-25T12:36:06;31.70;52.60
31271;DHT22;17904;47.420;9.310;2022-08-25T12:38:48;31.70;51.20
31271;DHT22;17904;47.420;9.310;2022-08-25T12:41:26;31.70;52.00
31271;DHT22;17904;47.420;9.310;2022-08-25T12:44:36;31.80;52.90
31271;DHT22;17904;47.420;9.310;2022-08-25T12:49:50;31.80;52.20
31271;DHT22;17904;47.420;9.310;2022-08-25T12:52:21;31.80;52.70
31271;DHT22;17904;47.420;9.310;2022-08-25T12:54:57;31.90;52.00
31271;DHT22;17904;47.420;9.310;2022-08-25T12:57:44;31.90;53.20
31271;DHT22;17904;47.420;9.310;2022-08-25T13:00:16;32.00;51.40
31271;DHT22;17904;47.420;9.310;2022-08-25T13:05:33;31.80;51.30
31271;DHT22;17904;47.420;9.310;2022-08-25T13:08:21;31.90;53.20
31271;DHT22;17904;47.420;9.310;2022-08-25T13:11:18;32.00;52.20
31271;DHT22;17904;47.420;9.310;2022-08-25T13:14:00;32.20;53.90
31271;DHT22;17904;47.420;9.310;2022-08-25T13:16:30;32.20;52.20
31271;DHT22;17904;47.420;9.310;2022-08-25T13:19:04;32.20;52.50
31271;DHT22;17904;47.420;9.310;2022-08-25T13:24:08;32.30;49.80
31271;DHT22;17904;47.420;9.310;2022-08-25T13:26:40;32.40;50.80
31271;DHT22;17904;47.420;9.310;2022-08-25T13:29:19;32.50;49.90
31271;DHT22;17904;47.420;9.310;2022-08-25T13:32:12;32.60;50.30
31271;DHT22;17904;47.420;9.310;2022-08-25T13:34:41;32.60;46.90
31271;DHT22;17904;47.420;9.310;2022-08-25T13:37:18;32.50;47.40
31271;DHT22;17904;47.420;9.310;2022-08-25T13:40:06;32.40;48.70
31271;DHT22;17904;47.420;9.310;2022-08-25T13:42:40;32.30;49.40
31271;DHT22;17904;47.420;9.310;2022-08-25T13:45:16;32.30;51.70
31271;DHT22;17904;47.420;9.310;2022-08-25T13:47:45;32.40;50.40
31271;DHT22;17904;47.420;9.310;2022-08-25T13:53:12;32.50;47.70
31271;DHT22;17904;47.420;9.310;2022-08-25T13:55:52;32.60;46.60
31271;DHT22;17904;47.420;9.310;2022-08-25T13:58:34;32.60;48.10
31271;DHT22;17904;47.420;9.310;2022-08-25T14:01:18;32.60;46.70
31271;DHT22;17904;47.420;9.310;2022-08-25T14:09:58;32.30;50.60
31271;DHT22;17904;47.420;9.310;2022-08-25T14:12:33;32.30;51.10
31271;DHT22;17904;47.420;9.310;2022-08-25T14:17:38;32.10;53.00
31271;DHT22;17904;47.420;9.310;2022-08-25T14:22:42;32.10;54.40
31271;DHT22;17904;47.420;9.310;2022-08-25T14:25:10;32.10;54.10
31271;DHT22;17904;47.420;9.310;2022-08-25T14:27:41;31.90;54.20
31271;DHT22;17904;47.420;9.310;2022-08-25T14:30:30;31.70;55.00
31271;DHT22;17904;47.420;9.310;2022-08-25T14:33:00;31.50;54.80
31271;DHT22;17904;47.420;9.310;2022-08-25T14:35:28;31.50;55.80
31271;DHT22;17904;47.420;9.310;2022-08-25T14:37:57;31.30;55.10
31271;DHT22;17904;47.420;9.310;2022-08-25T14:40:24;31.10;56.00
31271;DHT22;17904;47.420;9.310;2022-08-25T14:42:55;31.00;55.60
31271;DHT22;17904;47.420;9.310;2022-08-25T14:45:22;30.90;56.50
31271;DHT22;17904;47.420;9.310;2022-08-25T14:47:50;30.80;57.00
31271;DHT22;17904;47.420;9.310;2022-08-25T14:50:18;30.60;57.20
31271;DHT22;17904;47.420;9.310;2022-08-25T14:52:47;30.60;57.10
31271;DHT22;17904;47.420;9.310;2022-08-25T14:55:18;30.60;57.60
31271;DHT22;17904;47.420;9.310;2022-08-25T14:57:58;30.50;57.20
31271;DHT22;17904;47.420;9.310;2022-08-25T15:00:25;30.40;57.70
31271;DHT22;17904;47.420;9.310;2022-08-25T15:02:55;30.40;58.20
31271;DHT22;17904;47.420;9.310;2022-08-25T15:05:24;30.40;57.90
31271;DHT22;17904;47.420;9.310;2022-08-25T15:07:54;30.40;58.50
31271;DHT22;17904;47.420;9.310;2022-08-25T15:10:41;30.50;58.70
31271;DHT22;17904;47.420;9.310;2022-08-25T15:13:09;30.30;57.30
31271;DHT22;17904;47.420;9.310;2022-08-25T15:15:39;30.20;58.20
31271;DHT22;17904;47.420;9.310;2022-08-25T15:18:19;30.30;59.00
31271;DHT22;17904;47.420;9.310;2022-08-25T15:20:48;30.30;58.40
31271;DHT22;17904;47.420;9.310;2022-08-25T15:23:17;30.30;58.10
31271;DHT22;17904;47.420;9.310;2022-08-25T15:25:45;30.20;59.10
31271;DHT22;17904;47.420;9.310;2022-08-25T15:28:14;30.20;58.40
31271;DHT22;17904;47.420;9.310;2022-08-25T15:30:43;30.10;58.40
31271;DHT22;17904;47.420;9.310;2022-08-25T15:33:14;29.90;58.80
31271;DHT22;17904;47.420;9.310;2022-08-25T15:35:41;29.80;58.90
31271;DHT22;17904;47.420;9.310;2022-08-25T15:38:10;29.50;58.90
31271;DHT22;17904;47.420;9.310;2022-08-25T15:40:38;29.40;60.30
31271;DHT22;17904;47.420;9.310;2022-08-25T15:43:06;29.30;60.00
31271;DHT22;17904;47.420;9.310;2022-08-25T15:45:33;29.30;60.30
31271;DHT22;17904;47.420;9.310;2022-08-25T15:48:03;29.30;61.20
31271;DHT22;17904;47.420;9.310;2022-08-25T15:50:35;29.20;61.00
31271;DHT22;17904;47.420;9.310;2022-08-25T15:53:02;29.20;61.20
31271;DHT22;17904;47.420;9.310;2022-08-25T15:55:29;29.20;61.20
31271;DHT22;17904;47.420;9.310;2022-08-25T15:57:58;29.10;61.20
31271;DHT22;17904;47.420;9.310;2022-08-25T16:00:26;29.10;61.30
31271;DHT22;17904;47.420;9.310;2022-08-25T16:02:57;29.00;60.30
31271;DHT22;17904;47.420;9.310;2022-08-25T16:05:24;28.80;61.50
31271;DHT22;17904;47.420;9.310;2022-08-25T16:07:52;28.70;61.30
31271;DHT22;17904;47.420;9.310;2022-08-25T16:10:19;28.50;62.20
31271;DHT22;17904;47.420;9.310;2022-08-25T16:12:47;28.30;62.90
31271;DHT22;17904;47.420;9.310;2022-08-25T16:15:14;28.00;64.20
31271;DHT22;17904;47.420;9.310;2022-08-25T16:17:41;27.60;65.50
31271;DHT22;17904;47.420;9.310;2022-08-25T16:20:15;27.10;67.40
31271;DHT22;17904;47.420;9.310;2022-08-25T16:22:43;26.70;69.20
31271;DHT22;17904;47.420;9.310;2022-08-25T16:25:10;26.40;71.60
31271;DHT22;17904;47.420;9.310;2022-08-25T16:27:38;26.10;76.10
31271;DHT22;17904;47.420;9.310;2022-08-25T16:30:09;25.80;80.10
31271;DHT22;17904;47.420;9.310;2022-08-25T16:32:43;25.60;85.00
31271;DHT22;17904;47.420;9.310;2022-08-25T16:35:10;25.50;90.70
31271;DHT22;17904;47.420;9.310;2022-08-25T16:37:37;25.30;94.90
31271;DHT22;17904;47.420;9.310;2022-08-25T16:40:07;25.10;95.60
31271;DHT22;17904;47.420;9.310;2022-08-25T16:42:34;25.00;97.20
31271;DHT22;17904;47.420;9.310;2022-08-25T16:45:01;24.90;98.90
31271;DHT22;17904;47.420;9.310;2022-08-25T16:47:31;24.80;99.90
31271;DHT22;17904;47.420;9.310;2022-08-25T16:50:05;24.60;99.90
31271;DHT22;17904;47.420;9.310;2022-08-25T16:52:36;24.40;99.90
31271;DHT22;17904;47.420;9.310;2022-08-25T16:55:24;24.20;99.90
31271;DHT22;17904;47.420;9.310;2022-08-25T16:57:52;23.90;99.90
31271;DHT22;17904;47.420;9.310;2022-08-25T17:00:22;23.80;99.90
31271;DHT22;17904;47.420;9.310;2022-08-25T17:02:55;23.70;99.90
31271;DHT22;17904;47.420;9.310;2022-08-25T17:05:28;23.60;99.90
31271;DHT22;17904;47.420;9.310;2022-08-25T17:07:57;23.50;99.90
31271;DHT22;17904;47.420;9.310;2022-08-25T17:10:43;23.50;99.90
31271;DHT22;17904;47.420;9.310;2022-08-25T17:13:10;23.40;99.90
31271;DHT22;17904;47.420;9.310;2022-08-25T17:15:44;23.30;99.90
31271;DHT22;17904;47.420;9.310;2022-08-25T17:18:12;23.20;99.90
31271;DHT22;17904;47.420;9.310;2022-08-25T17:20:40;23.10;99.90
31271;DHT22;17904;47.420;9.310;2022-08-25T17:23:08;22.90;99.90
31271;DHT22;17904;47.420;9.310;2022-08-25T17:25:41;22.90;99.90
31271;DHT22;17904;47.420;9.310;2022-08-25T17:28:09;22.80;99.90
31271;DHT22;17904;47.420;9.310;2022-08-25T17:30:39;22.70;99.90
31271;DHT22;17904;47.420;9.310;2022-08-25T17:33:06;22.70;99.90
31271;DHT22;17904;47.420;9.310;2022-08-25T17:35:40;22.60;99.90
31271;DHT22;17904;47.420;9.310;2022-08-25T17:38:08;22.60;99.90
31271;DHT22;17904;47.420;9.310;2022-08-25T17:40:35;22.50;99.90
31271;DHT22;17904;47.420;9.310;2022-08-25T17:43:03;22.30;99.90
31271;DHT22;17904;47.420;9.310;2022-08-25T17:45:34;22.20;99.90
31271;DHT22;17904;47.420;9.310;2022-08-25T17:48:02;22.10;99.90